Time;durP1;ratioP1;P1;durP2;ratioP2;P2;SDS_P1;SDS_P2;PMS_P1;PMS_P2;Temp;Humidity;BMP_temperature;BMP_pressure;BME280_temperature;BME280_humidity;BME280_pressure;Samples;Min_cycle;Max_cycle;Signal;HPM_P1;HPM_P2
2022/08/02 00:00:56;;;;;;;4.68;2.10;;;17.70;99.90;;;17.07;100.00;97948.75;4938335;28;20478;-64
2022/08/02 00:03:26;;;;;;;3.30;2.10;;;17.70;99.90;;;17.18;100.00;97949.88;4940253;28;20146;-64
2022/08/02 00:05:53;;;;;;;3.45;2.00;;;17.80;99.90;;;17.07;100.00;97946.13;4956491;28;20145;-64
2022/08/02 00:08:21;;;;;;;6.45;2.00;;;17.80;99.90;;;17.04;100.00;97946.31;4937840;28;20086;-64
2022/08/02 00:10:48;;;;;;;3.83;1.83;;;17.80;99.90;;;17.20;100.00;97946.19;4939699;28;20043;-64
2022/08/02 00:13:15;;;;;;;3.58;2.03;;;17.80;99.90;;;17.24;100.00;97950.31;4939052;28;20138;-64
2022/08/02 00:15:42;;;;;;;4.10;2.35;;;17.80;99.90;;;17.35;100.00;97944.34;4935958;28;20079;-64
2022/08/02 00:42:43;;;;;;;4.43;2.00;;;17.80;99.90;;;17.07;100.00;97950.53;4943979;28;20058;-65
2022/08/02 00:45:10;;;;;;;2.33;1.95;;;17.70;99.90;;;16.97;100.00;97950.28;4934839;28;20155;-66
2022/08/02 00:47:37;;;;;;;3.67;2.10;;;17.70;99.90;;;16.97;100.00;97949.41;4938690;28;20078;-66
2022/08/02 00:50:04;;;;;;;3.63;2.13;;;17.60;99.90;;;17.02;100.00;97944.75;4951387;28;20078;-65
2022/08/02 00:52:31;;;;;;;3.58;2.25;;;17.60;99.90;;;16.87;100.00;97955.22;4937334;28;20051;-65
2022/08/02 00:54:58;;;;;;;4.78;2.58;;;17.60;99.90;;;16.81;100.00;97952.13;4936891;29;20130;-65
2022/08/02 00:57:25;;;;;;;3.28;2.30;;;17.50;99.90;;;16.82;100.00;97944.19;4938983;28;20131;-65
2022/08/02 00:59:52;;;;;;;3.13;2.30;;;17.50;99.90;;;16.75;100.00;97944.66;4937505;28;20138;-65
2022/08/02 01:02:19;;;;;;;4.63;1.92;;;17.40;99.90;;;16.75;100.00;97944.66;4952877;28;20079;-65
2022/08/02 01:04:47;;;;;;;3.60;2.47;;;17.30;99.90;;;16.72;100.00;97951.75;4937551;29;20079;-65
2022/08/02 01:07:14;;;;;;;4.72;2.47;;;17.30;99.90;;;16.56;100.00;97953.63;4938781;28;20384;-65
2022/08/02 01:09:43;;;;;;;3.10;2.30;;;17.20;99.90;;;16.61;100.00;97958.59;4939321;28;20172;-64
2022/08/02 01:12:10;;;;;;;4.38;2.35;;;17.20;99.90;;;16.66;100.00;97956.53;4952136;28;20048;-65
2022/08/02 01:14:42;;;;;;;4.60;2.50;;;17.20;99.90;;;16.66;100.00;97957.38;4941689;28;20479;-66
2022/08/02 01:17:45;;;;;;;4.03;2.50;;;17.30;99.90;;;16.62;100.00;97953.25;4939857;29;20051;-65
2022/08/02 01:21:03;;;;;;;3.50;2.42;;;17.30;99.90;;;16.43;100.00;97950.91;4935730;28;20516;-65
2022/08/02 01:23:57;;;;;;;6.03;2.20;;;17.20;99.90;;;16.39;100.00;97959.03;4938969;28;20139;-65
2022/08/02 01:26:32;;;;;;;6.18;2.90;;;17.10;99.90;;;16.29;100.00;97959.59;4937118;28;20396;-65
2022/08/02 01:29:44;;;;;;;5.93;2.50;;;17.00;99.90;;;16.31;100.00;97962.97;4942345;28;20047;-65
2022/08/02 01:32:18;;;;;;;7.90;3.10;;;17.00;99.90;;;16.23;100.00;97957.34;4881961;29;20055;-65
2022/08/02 01:34:57;;;;;;;7.10;2.58;;;16.90;99.90;;;16.20;100.00;97956.69;4871683;29;20056;-65
2022/08/02 01:37:32;;;;;;;5.78;2.47;;;16.90;99.90;;;16.19;100.00;97966.28;4923078;28;20101;-65
2022/08/02 01:40:09;;;;;;;5.35;2.70;;;16.90;99.90;;;16.07;100.00;97967.88;4953840;28;20143;-65
2022/08/02 01:42:43;;;;;;;4.78;2.63;;;16.80;99.90;;;16.02;100.00;97972.53;4954354;28;20059;-65
2022/08/02 01:45:12;;;;;;;6.53;2.70;;;16.70;99.90;;;16.14;100.00;97980.63;4954251;28;20145;-65
2022/08/02 01:47:42;;;;;;;4.85;2.75;;;16.70;99.90;;;16.05;100.00;97980.22;4955485;28;20567;-64
2022/08/02 01:50:16;;;;;;;7.15;2.63;;;16.70;99.90;;;16.12;100.00;97985.09;4954063;28;20051;-65
2022/08/02 01:52:48;;;;;;;4.20;2.38;;;16.70;99.90;;;16.12;100.00;97990.34;4955664;28;20378;-65
2022/08/02 01:55:24;;;;;;;5.93;2.75;;;16.80;99.90;;;16.15;100.00;97993.63;4937805;28;20055;-65
2022/08/02 01:58:04;;;;;;;5.25;2.65;;;16.80;99.90;;;16.00;100.00;97989.28;4940697;28;20394;-65
2022/08/02 02:00:37;;;;;;;3.30;2.42;;;16.80;99.90;;;16.02;100.00;97988.25;4940704;28;20059;-65
2022/08/02 02:03:14;;;;;;;5.85;2.70;;;16.70;99.90;;;15.95;100.00;97988.72;4939701;28;20286;-65
2022/08/02 02:05:42;;;;;;;4.05;2.40;;;16.60;99.90;;;15.98;100.00;97983.28;4955229;28;20094;-65
2022/08/02 02:08:11;;;;;;;3.97;2.25;;;16.70;99.90;;;15.97;100.00;97984.22;4957405;28;20051;-64
2022/08/02 02:10:55;;;;;;;4.85;2.72;;;16.70;99.90;;;15.98;100.00;97989.34;4952760;28;20519;-65
2022/08/02 02:13:23;;;;;;;3.42;2.47;;;16.70;99.90;;;16.04;100.00;97983.78;4941363;28;20185;-64
2022/08/02 02:16:03;;;;;;;3.55;2.53;;;16.70;99.90;;;16.09;100.00;97986.97;4938915;28;20059;-64
2022/08/02 02:18:39;;;;;;;5.03;2.72;;;16.70;99.90;;;16.17;100.00;97985.66;4941604;28;20091;-64
2022/08/02 02:21:06;;;;;;;3.65;2.33;;;16.80;99.90;;;16.18;100.00;97987.38;4953007;28;20070;-65
2022/08/02 02:23:33;;;;;;;4.07;2.53;;;16.80;99.90;;;16.24;100.00;97989.63;4940901;28;20061;-65
2022/08/02 02:26:04;;;;;;;3.75;2.50;;;16.90;99.90;;;16.27;100.00;97981.59;4939795;28;20151;-65
2022/08/02 02:28:36;;;;;;;2.72;2.13;;;16.90;99.90;;;16.15;100.00;97970.06;4942473;28;20050;-65
2022/08/02 02:31:08;;;;;;;3.72;2.30;;;16.90;99.90;;;16.04;100.00;97970.69;4959611;28;20043;-65
2022/08/02 02:33:46;;;;;;;5.88;3.00;;;16.80;99.90;;;16.19;100.00;97968.91;4940608;28;20082;-64
2022/08/02 02:36:15;;;;;;;3.05;2.47;;;16.70;99.90;;;16.17;100.00;97970.81;4935226;28;20058;-64
2022/08/02 02:38:44;;;;;;;3.25;2.75;;;16.70;99.90;;;16.17;100.00;97969.94;4953278;28;20664;-65
2022/08/02 02:49:25;;;;;;;3.95;2.85;;;16.90;99.90;;;16.08;100.00;97966.97;4937714;28;20053;-64
2022/08/02 02:51:53;;;;;;;4.07;2.17;;;16.80;99.90;;;16.21;100.00;97968.84;4954768;28;20059;-65
2022/08/02 02:54:22;;;;;;;4.45;2.83;;;16.80;99.90;;;16.03;100.00;97971.63;4958298;28;20182;-65
2022/08/02 02:57:02;;;;;;;3.90;2.80;;;16.70;99.90;;;15.99;100.00;97975.34;4960138;28;20066;-65
2022/08/02 02:59:30;;;;;;;4.20;2.60;;;16.70;99.90;;;16.00;100.00;97984.88;4946805;28;20133;-65
2022/08/02 03:01:57;;;;;;;3.47;2.85;;;16.70;99.90;;;16.09;100.00;97993.97;4939496;28;20074;-65
2022/08/02 03:04:27;;;;;;;4.07;3.10;;;16.70;99.90;;;16.13;100.00;97995.50;4943675;28;20142;-64
2022/08/02 03:07:15;;;;;;;5.25;2.65;;;16.80;99.90;;;16.16;100.00;98002.31;4943401;28;20054;-65
2022/08/02 03:09:43;;;;;;;4.13;2.72;;;16.80;99.90;;;16.20;100.00;98006.44;4957937;28;20122;-64
2022/08/02 03:12:13;;;;;;;3.20;2.53;;;16.80;99.90;;;16.24;100.00;98006.19;4943087;28;20044;-65
2022/08/02 03:14:45;;;;;;;4.60;2.60;;;16.90;99.90;;;16.25;100.00;97996.53;4942719;28;20057;-64
2022/08/02 03:17:15;;;;;;;4.38;2.80;;;16.90;99.90;;;16.19;100.00;97996.91;4957716;28;20137;-65
2022/08/02 03:19:43;;;;;;;3.45;2.50;;;16.90;99.90;;;16.07;100.00;97995.84;4942139;28;20106;-64
2022/08/02 03:22:11;;;;;;;4.00;2.28;;;16.90;99.90;;;16.22;100.00;98009.81;4939296;28;20059;-64
2022/08/02 03:24:38;;;;;;;4.18;2.42;;;16.80;99.90;;;16.12;100.00;98004.25;4941250;28;20051;-65
2022/08/02 03:27:05;;;;;;;3.70;2.28;;;16.80;99.90;;;16.11;100.00;98005.22;4939040;28;20043;-66
2022/08/02 03:29:32;;;;;;;4.22;2.78;;;16.80;99.90;;;16.12;100.00;98009.50;4944779;28;20092;-64
2022/08/02 03:32:00;;;;;;;4.47;2.90;;;16.80;99.90;;;16.08;100.00;98006.22;4942835;28;20461;-64
2022/08/02 03:34:28;;;;;;;5.43;2.80;;;16.70;99.90;;;16.03;100.00;98010.91;4957025;28;20052;-65
2022/08/02 03:36:57;;;;;;;3.13;2.50;;;16.70;99.90;;;16.04;100.00;98011.75;4943247;28;20055;-65
2022/08/02 03:39:25;;;;;;;5.28;2.58;;;16.70;99.90;;;16.09;100.00;98010.53;4942219;28;20146;-65
2022/08/02 03:41:53;;;;;;;3.30;2.40;;;16.70;99.90;;;15.97;100.00;98016.47;4939260;28;20181;-65
2022/08/02 03:44:21;;;;;;;5.25;2.80;;;16.70;99.90;;;16.02;100.00;98013.59;4937684;28;20055;-65
2022/08/02 03:46:50;;;;;;;3.10;2.50;;;16.70;99.90;;;15.99;100.00;98017.25;4938780;28;20078;-65
2022/08/02 03:49:17;;;;;;;3.80;2.70;;;16.70;99.90;;;15.98;100.00;98025.16;4952742;28;20138;-65
2022/08/02 03:51:45;;;;;;;4.80;2.90;;;16.60;99.90;;;16.00;100.00;98016.28;4940371;28;20417;-65
2022/08/02 03:54:12;;;;;;;3.95;2.78;;;16.70;99.90;;;15.99;100.00;98017.25;4953832;28;20146;-65
2022/08/02 03:56:39;;;;;;;3.78;2.53;;;16.70;99.90;;;15.96;100.00;98008.72;4956713;28;20086;-65
2022/08/02 03:59:12;;;;;;;3.35;2.50;;;16.70;99.90;;;16.02;100.00;98003.97;4937198;28;20054;-65
2022/08/02 04:01:40;;;;;;;4.53;2.35;;;16.70;99.90;;;16.02;100.00;98011.81;4940320;28;20047;-65
2022/08/02 04:04:07;;;;;;;4.25;3.00;;;16.70;99.90;;;16.11;100.00;98013.06;4936486;28;20044;-64
2022/08/02 04:06:35;;;;;;;3.15;2.33;;;16.70;99.90;;;16.07;100.00;98017.63;4943588;28;20051;-65
2022/08/02 04:09:08;;;;;;;2.80;1.70;;;16.80;99.90;;;16.39;100.00;98008.81;4941879;28;20059;-65
2022/08/02 04:11:36;;;;;;;3.45;2.03;;;16.80;99.90;;;16.19;100.00;98005.59;4943515;28;20058;-64
2022/08/02 04:14:10;;;;;;;3.00;2.28;;;16.90;99.90;;;16.14;100.00;98007.63;4934571;28;20106;-65
2022/08/02 04:16:44;;;;;;;4.45;2.80;;;16.90;99.90;;;16.17;100.00;98004.84;4934587;28;20138;-65
2022/08/02 04:19:20;;;;;;;5.35;2.70;;;16.90;99.90;;;16.09;100.00;98012.31;4951865;28;20132;-65
2022/08/02 04:21:50;;;;;;;6.15;2.63;;;16.80;99.90;;;16.01;100.00;98015.38;4936427;28;20047;-65
2022/08/02 04:24:27;;;;;;;2.97;2.40;;;16.80;99.90;;;16.05;100.00;98016.03;4935091;28;20465;-65
2022/08/02 04:26:56;;;;;;;5.38;2.22;;;16.90;99.90;;;16.31;100.00;98017.97;4937744;28;20058;-64
2022/08/02 04:29:45;;;;;;;7.10;2.75;;;16.90;99.90;;;16.24;100.00;98007.97;4940876;28;20088;-65
2022/08/02 04:32:13;;;;;;;3.47;1.70;;;16.90;99.90;;;16.52;100.00;97994.06;4950037;28;20070;-65
2022/08/02 04:34:42;;;;;;;4.57;2.13;;;16.90;99.90;;;16.50;100.00;97994.13;4942213;28;20074;-65
2022/08/02 04:37:29;;;;;;;2.90;2.50;;;16.90;99.90;;;16.47;100.00;97996.97;4947301;28;20082;-65
2022/08/02 04:39:56;;;;;;;3.55;2.60;;;17.00;99.90;;;16.66;100.00;97995.84;4943514;28;21160;-64
2022/08/02 04:42:25;;;;;;;3.95;2.00;;;17.00;99.90;;;16.68;100.00;97994.81;4953603;28;20541;-65
2022/08/02 04:44:53;;;;;;;2.83;2.15;;;17.10;99.90;;;16.62;100.00;97996.97;4940296;28;20143;-65
2022/08/02 04:47:21;;;;;;;5.15;2.60;;;17.10;99.90;;;16.56;100.00;98002.56;4938763;28;20068;-63
2022/08/02 04:50:08;;;;;;;3.40;2.50;;;17.20;99.90;;;16.52;100.00;98007.16;4939830;28;20051;-64
2022/08/02 04:52:35;;;;;;;4.00;2.35;;;17.20;99.90;;;16.61;100.00;98019.72;4939244;28;20055;-64
2022/08/02 04:55:03;;;;;;;5.20;2.45;;;17.30;99.90;;;16.51;100.00;98021.19;4934522;28;20079;-64
2022/08/02 05:00:19;;;;;;;4.25;2.10;;;17.30;99.90;;;16.63;100.00;98022.25;4937380;28;20504;-65
2022/08/02 05:02:46;;;;;;;4.82;2.80;;;17.30;99.90;;;16.77;100.00;98030.13;4942526;28;20516;-64
2022/08/02 05:05:14;;;;;;;7.10;2.92;;;17.30;99.90;;;16.93;100.00;98017.78;4938023;28;20561;-65
2022/08/02 05:07:41;;;;;;;3.95;2.60;;;17.40;99.90;;;16.81;100.00;98015.94;4942219;28;20047;-65
2022/08/02 05:10:09;;;;;;;4.15;2.28;;;17.50;99.90;;;16.82;100.00;98022.84;4945613;28;20134;-64
2022/08/02 05:12:39;;;;;;;3.35;2.63;;;17.50;99.90;;;16.76;100.00;98030.19;4953402;28;20698;-65
2022/08/02 05:15:08;;;;;;;4.13;2.60;;;17.40;99.90;;;16.75;100.00;98036.38;4954632;28;20138;-65
2022/08/02 05:17:39;;;;;;;5.60;2.50;;;17.40;99.90;;;16.79;100.00;98030.91;4945111;28;20075;-65
2022/08/02 05:20:18;;;;;;;4.47;2.50;;;17.50;99.90;;;16.73;100.00;98032.06;4954549;28;20123;-64
2022/08/02 05:22:46;;;;;;;2.97;1.90;;;17.50;99.90;;;16.77;100.00;98030.13;4945095;28;20063;-64
2022/08/02 05:25:13;;;;;;;2.95;1.83;;;17.60;99.90;;;16.86;100.00;98031.38;4941222;28;20063;-64
2022/08/02 05:27:41;;;;;;;3.35;1.58;;;17.70;99.90;;;16.99;100.00;98029.69;4946388;28;20147;-65
2022/08/02 05:30:09;;;;;;;3.30;1.75;;;17.70;99.90;;;16.99;100.00;98024.44;4942418;28;20054;-64
2022/08/02 05:32:47;;;;;;;2.28;1.70;;;17.80;99.90;;;17.21;100.00;98023.09;4944328;28;20149;-65
2022/08/02 05:35:33;;;;;;;2.45;1.83;;;17.90;99.90;;;17.30;100.00;98022.53;4945756;28;20047;-64
2022/08/02 05:38:03;;;;;;;5.68;1.92;;;17.90;99.90;;;17.30;100.00;98023.38;4942985;28;20490;-65
2022/08/02 05:40:36;;;;;;;3.20;1.95;;;17.90;99.90;;;17.39;100.00;98026.38;4942119;28;20360;-64
2022/08/02 05:43:23;;;;;;;3.33;1.77;;;18.00;99.90;;;17.59;100.00;98025.09;4942900;28;20134;-65
2022/08/02 05:45:52;;;;;;;5.82;2.30;;;18.10;99.90;;;17.59;100.00;98032.97;4944753;29;20153;-65
2022/08/02 05:48:19;;;;;;;2.53;1.77;;;18.20;99.90;;;17.66;100.00;98034.25;4941466;28;20070;-64
2022/08/02 05:50:51;;;;;;;3.20;1.98;;;18.30;99.90;;;17.72;100.00;98044.34;4946274;28;20150;-64
2022/08/02 05:53:20;;;;;;;2.97;1.90;;;18.50;99.90;;;17.88;100.00;98039.84;4952808;28;20059;-63
2022/08/02 05:56:00;;;;;;;3.05;1.95;;;18.60;99.90;;;18.25;100.00;98036.59;4946353;28;20085;-63
2022/08/02 05:58:50;;;;;;;3.05;1.85;;;18.80;99.90;;;18.64;100.00;98021.72;4954804;28;20055;-64
2022/08/02 06:01:28;;;;;;;3.45;1.63;;;19.00;99.90;;;18.98;100.00;98015.00;4939153;28;20408;-64
2022/08/02 06:03:59;;;;;;;3.10;1.63;;;19.30;99.90;;;19.22;100.00;97997.44;4960499;28;20090;-64
2022/08/02 06:06:28;;;;;;;3.42;2.08;;;19.50;99.90;;;19.12;100.00;97980.66;4956420;28;20141;-64
2022/08/02 06:09:02;;;;;;;3.28;1.88;;;19.70;99.90;;;19.29;100.00;97970.69;4943371;28;20052;-65
2022/08/02 06:11:38;;;;;;;3.30;1.77;;;19.90;99.90;;;19.49;100.00;97966.63;4943086;28;20122;-62
2022/08/02 06:14:06;;;;;;;4.53;2.10;;;20.10;99.90;;;19.59;100.00;97954.47;4944021;28;20086;-63
2022/08/02 06:16:34;;;;;;;2.95;1.92;;;20.30;99.90;;;19.73;100.00;97940.31;4939939;28;20516;-66
2022/08/02 06:19:10;;;;;;;2.90;1.63;;;20.50;99.90;;;20.10;100.00;97933.13;4942804;28;20055;-66
2022/08/02 06:21:40;;;;;;;2.72;1.40;;;20.70;99.90;;;20.55;100.00;97927.94;4956683;28;20069;-66
2022/08/02 06:24:29;;;;;;;2.58;1.50;;;21.00;99.90;;;20.75;100.00;97923.75;4944327;28;20392;-64
2022/08/02 06:26:57;;;;;;;2.08;1.25;;;21.10;99.90;;;20.84;100.00;97917.75;4954630;28;20134;-63
2022/08/02 06:29:24;;;;;;;3.35;1.60;;;21.10;99.90;;;20.56;100.00;97931.41;4959183;28;20055;-64
2022/08/02 06:31:55;;;;;;;3.40;1.98;;;21.10;99.90;;;20.36;100.00;97930.31;4953706;28;20054;-64
2022/08/02 06:34:22;;;;;;;2.47;1.10;;;21.10;99.90;;;20.66;100.00;97935.03;4955609;28;20063;-64
2022/08/02 06:37:09;;;;;;;3.80;1.38;;;21.10;99.90;;;20.81;100.00;97933.00;4937833;29;20055;-63
2022/08/02 06:39:48;;;;;;;4.75;1.70;;;21.10;99.90;;;20.84;100.00;97924.81;4955601;28;20047;-64
2022/08/02 06:42:25;;;;;;;2.42;1.25;;;21.30;99.90;;;21.19;100.00;97924.66;4957313;28;20055;-63
2022/08/02 06:44:54;;;;;;;2.20;1.50;;;21.70;99.90;;;21.22;100.00;97921.78;4951530;28;20039;-64
2022/08/02 06:47:25;;;;;;;1.55;1.00;;;21.90;99.90;;;21.45;100.00;97922.56;4937874;29;20494;-64
2022/08/02 06:49:52;;;;;;;1.55;1.10;;;22.10;99.90;;;21.63;100.00;97925.53;4943868;28;20130;-64
2022/08/02 06:52:33;;;;;;;1.85;1.38;;;22.30;99.90;;;21.71;100.00;97930.16;4941485;28;20052;-64
2022/08/02 06:55:03;;;;;;;3.45;1.30;;;22.60;99.90;;;21.52;100.00;97910.53;4938601;28;20568;-64
2022/08/02 06:57:32;;;;;;;4.80;1.38;;;22.80;99.90;;;21.88;100.00;97915.56;4935263;28;20055;-63
2022/08/02 07:00:05;;;;;;;4.07;1.38;;;23.00;99.90;;;22.18;100.00;97904.22;4943353;28;20047;-64
2022/08/02 07:02:34;;;;;;;2.67;1.42;;;23.10;99.90;;;21.99;100.00;97902.28;4937319;29;20079;-64
2022/08/02 07:05:02;;;;;;;4.03;1.00;;;23.30;99.90;;;22.19;100.00;97897.09;4939625;28;20749;-64
2022/08/02 07:07:30;;;;;;;1.75;0.98;;;23.30;99.90;;;22.23;100.00;97891.47;4942634;28;20519;-64
2022/08/02 07:09:58;;;;;;;2.97;1.20;;;23.30;99.90;;;21.96;100.00;97888.47;4940953;29;20134;-64
2022/08/02 07:12:32;;;;;;;3.47;1.10;;;23.10;99.90;;;22.19;100.00;97874.16;4955980;28;20473;-64
2022/08/02 07:15:03;;;;;;;3.60;1.00;;;23.20;99.90;;;22.18;100.00;97880.41;4955091;28;20082;-64
2022/08/02 07:17:30;;;;;;;2.17;1.13;;;23.20;99.90;;;22.28;100.00;97875.19;4938562;28;20134;-64
2022/08/02 07:19:58;;;;;;;1.98;1.00;;;23.30;99.90;;;22.28;100.00;97873.41;4939612;29;20263;-64
2022/08/02 07:22:27;;;;;;;1.70;0.85;;;23.40;99.90;;;22.54;100.00;97876.44;4942547;28;20089;-64
2022/08/02 07:24:58;;;;;;;1.80;1.13;;;23.50;99.90;;;22.85;100.00;97871.09;4940723;28;20106;-64
2022/08/02 07:27:27;;;;;;;3.25;1.20;;;23.70;99.90;;;22.79;100.00;97868.19;4938210;28;20057;-64
2022/08/02 07:29:55;;;;;;;5.60;1.00;;;23.80;99.90;;;23.25;100.00;97870.25;4956939;28;20523;-64
2022/08/02 07:32:25;;;;;;;2.40;0.93;;;24.00;99.90;;;23.52;100.00;97858.97;4941651;29;20051;-64
2022/08/02 07:34:53;;;;;;;1.40;0.88;;;24.30;99.90;;;23.47;100.00;97857.69;4941009;28;20481;-64
2022/08/02 07:37:28;;;;;;;1.88;0.80;;;24.40;99.90;;;23.78;100.00;97855.75;4943473;28;20051;-64
2022/08/02 07:40:15;;;;;;;2.05;1.20;;;24.50;99.90;;;23.17;100.00;97857.69;4943633;28;20073;-64
2022/08/02 07:42:53;;;;;;;1.77;0.90;;;24.30;99.90;;;23.45;100.00;97849.91;4942773;28;20055;-64
2022/08/02 07:45:26;;;;;;;2.25;1.10;;;24.30;99.90;;;23.12;100.00;97853.78;4937750;28;20548;-66
2022/08/02 07:47:53;;;;;;;2.67;0.95;;;24.20;99.90;;;23.07;100.00;97856.00;4950811;28;20058;-64
2022/08/02 07:50:20;;;;;;;1.85;0.85;;;24.10;99.90;;;23.12;100.00;97845.81;4939406;28;21509;-64
2022/08/02 07:52:48;;;;;;;1.67;0.90;;;24.10;99.90;;;23.41;100.00;97848.50;4940065;28;20094;-64
2022/08/02 07:55:23;;;;;;;4.65;1.10;;;24.20;99.90;;;23.68;100.00;97845.13;4953069;28;20522;-64
2022/08/02 07:58:05;;;;;;;3.08;0.90;;;24.40;99.90;;;24.06;100.00;97846.06;4939787;28;20538;-64
2022/08/02 08:00:37;;;;;;;2.45;0.75;;;24.50;99.90;;;23.73;100.00;97837.59;4941500;29;20063;-64
2022/08/02 08:03:04;;;;;;;1.75;0.80;;;24.50;99.90;;;23.73;100.00;97839.41;4939354;28;20465;-64
2022/08/02 08:05:32;;;;;;;2.78;0.88;;;24.60;99.90;;;23.65;100.00;97836.63;4940639;29;20057;-64
2022/08/02 08:07:59;;;;;;;2.75;1.13;;;24.50;99.90;;;23.57;100.00;97837.34;4939568;28;20057;-64
2022/08/02 08:10:26;;;;;;;2.45;0.95;;;24.40;99.90;;;23.78;100.00;97829.25;4939025;28;20053;-64
2022/08/02 08:12:54;;;;;;;2.03;1.00;;;24.50;99.90;;;23.52;100.00;97826.34;4941637;28;20059;-64
2022/08/02 08:15:21;;;;;;;2.35;0.98;;;24.70;99.90;;;24.26;100.00;97820.31;4940512;28;20052;-64
2022/08/02 08:17:48;;;;;;;2.17;0.90;;;24.80;99.90;;;24.30;100.00;97823.53;4939649;28;20051;-64
2022/08/02 08:20:15;;;;;;;2.45;1.10;;;24.90;99.90;;;24.37;100.00;97816.66;4939205;29;20064;-64
2022/08/02 08:22:44;;;;;;;1.65;0.95;;;25.00;99.90;;;24.43;100.00;97818.72;4951264;28;20606;-64
2022/08/02 08:25:11;;;;;;;4.05;0.60;;;25.00;99.90;;;24.54;100.00;97815.06;4940147;29;20162;-64
2022/08/02 08:27:48;;;;;;;1.08;0.52;;;25.00;99.90;;;24.81;100.00;97814.22;4940349;28;20051;-65
2022/08/02 08:30:15;;;;;;;2.58;0.90;;;25.20;99.90;;;24.58;100.00;97813.78;4954511;28;20153;-64
2022/08/02 08:32:42;;;;;;;1.13;0.60;;;25.30;99.90;;;24.85;100.00;97820.91;4937604;28;20130;-64
2022/08/02 08:35:09;;;;;;;1.65;0.90;;;25.50;99.90;;;24.91;100.00;97817.66;4937276;29;20067;-64
2022/08/02 08:37:38;;;;;;;2.72;0.82;;;25.70;99.90;;;25.15;100.00;97813.56;4937871;28;20078;-64
2022/08/02 08:40:07;;;;;;;1.02;0.60;;;25.80;99.90;;;25.21;100.00;97821.78;4941214;28;20050;-64
2022/08/02 08:42:38;;;;;;;5.40;0.90;;;26.00;99.90;;;25.00;100.00;97818.56;4952539;28;20151;-64
2022/08/02 08:45:07;;;;;;;2.00;0.82;;;26.00;99.90;;;24.95;100.00;97828.78;4937832;28;20043;-64
2022/08/02 08:47:40;;;;;;;2.22;0.70;;;26.10;99.90;;;25.21;100.00;97818.31;4937387;28;20051;-64
2022/08/02 08:50:20;;;;;;;2.08;0.98;;;26.20;99.90;;;24.83;100.00;97826.34;4934043;28;20071;-64
2022/08/02 08:53:03;;;;;;;1.40;0.80;;;26.20;99.90;;;25.12;100.00;97820.00;4937568;28;20043;-64
2022/08/02 08:55:33;;;;;;;1.98;1.00;;;26.10;99.90;;;25.59;100.00;97822.47;4954454;28;20059;-64
2022/08/02 08:58:02;;;;;;;1.65;0.80;;;26.20;99.90;;;26.01;100.00;97810.31;4953619;28;20062;-64
2022/08/02 09:00:32;;;;;;;2.40;0.70;;;26.60;99.90;;;26.59;100.00;97806.94;4940962;28;20051;-64
2022/08/02 09:07:05;;;;;;;3.97;0.80;;;27.30;99.00;;;26.18;100.00;97816.53;4937276;28;20530;-64
2022/08/02 09:09:32;;;;;;;1.05;0.63;;;27.40;98.00;;;26.71;100.00;97820.81;4937555;28;20421;-64
2022/08/02 09:12:14;;;;;;;1.77;0.60;;;27.80;97.50;;;27.60;100.00;97813.97;4935438;28;20527;-65
2022/08/02 09:14:41;;;;;;;2.25;0.60;;;;;;;28.50;100.00;97813.81;4934368;28;20829;-65
2022/08/02 09:17:11;;;;;;;1.25;0.75;;;29.00;96.10;;;28.09;100.00;97815.75;4938016;28;20055;-65
2022/08/02 09:19:39;;;;;;;1.00;0.60;;;29.00;95.60;;;27.33;100.00;97815.97;4941692;28;20138;-65
2022/08/02 09:22:13;;;;;;;1.00;0.57;;;28.80;95.60;;;29.00;100.00;97814.41;4942040;28;20043;-65
2022/08/02 09:24:50;;;;;;;2.40;0.60;;;29.10;95.70;;;29.70;100.00;97815.28;4938350;28;20039;-65
2022/08/02 09:27:21;;;;;;;2.45;0.60;;;29.60;95.20;;;29.63;100.00;97808.94;4952593;28;20043;-65
2022/08/02 09:29:53;;;;;;;1.30;0.60;;;29.90;93.80;;;29.91;100.00;97799.34;4938315;28;20058;-65
2022/08/02 09:32:46;;;;;;;0.88;0.60;;;30.00;93.10;;;28.96;100.00;97810.41;4951861;28;20057;-65
2022/08/02 09:35:35;;;;;;;1.85;0.50;;;30.30;93.20;;;29.20;100.00;97809.47;4936164;28;20425;-65
2022/08/02 09:38:22;;;;;;;1.65;0.40;;;30.20;93.00;;;29.71;100.00;97803.56;4935812;28;20497;-65
2022/08/02 09:40:52;;;;;;;1.50;0.60;;;29.90;93.50;;;29.29;100.00;97804.91;4938319;28;20055;-65
2022/08/02 09:43:22;;;;;;;0.98;0.50;;;29.60;92.90;;;30.28;100.00;97802.19;4937421;28;20154;-65
2022/08/02 09:45:48;;;;;;;0.85;0.40;;;29.70;93.00;;;31.93;100.00;97799.56;4934777;29;20070;-65
2022/08/02 09:48:15;;;;;;;2.83;0.50;;;30.40;93.40;;;31.44;100.00;97795.09;4944849;28;20051;-65
2022/08/02 09:50:45;;;;;;;2.22;0.50;;;31.00;92.80;;;31.88;100.00;97792.13;4939113;29;20048;-65
2022/08/02 09:53:15;;;;;;;3.60;0.60;;;31.30;92.30;;;30.47;100.00;97793.56;4955892;28;20056;-65
2022/08/02 09:55:42;;;;;;;2.23;0.60;;;31.40;91.60;;;30.83;100.00;97801.63;4955857;28;20047;-65
2022/08/02 09:58:19;;;;;;;0.90;0.50;;;31.10;91.00;;;29.44;100.00;97802.25;4958897;28;20066;-65
2022/08/02 10:01:00;;;;;;;1.17;0.70;;;30.40;91.20;;;28.80;100.00;97806.00;4938983;28;20059;-65
2022/08/02 10:03:27;;;;;;;0.95;0.60;;;29.40;92.00;;;28.27;100.00;97799.53;4937472;28;20058;-65
2022/08/02 10:06:01;;;;;;;3.50;0.55;;;28.90;92.10;;;27.95;100.00;97795.94;4939127;28;20065;-65
2022/08/02 10:08:31;;;;;;;1.02;0.55;;;28.60;92.70;;;27.27;100.00;97803.28;4941049;28;20062;-64
2022/08/02 10:11:00;;;;;;;3.42;0.70;;;28.40;92.80;;;27.09;100.00;97803.41;4943983;28;20044;-64
2022/08/02 10:13:33;;;;;;;1.17;0.70;;;28.00;92.90;;;27.37;100.00;97794.28;4941001;28;20512;-64
2022/08/02 10:16:01;;;;;;;1.20;0.50;;;27.90;93.20;;;27.44;100.00;97796.16;4943716;28;20544;-65
2022/08/02 10:18:29;;;;;;;1.10;0.60;;;27.90;93.50;;;27.67;100.00;97788.31;4960498;28;20169;-65
2022/08/02 10:21:17;;;;;;;2.13;0.55;;;28.10;93.40;;;27.79;100.00;97795.94;4945454;28;20102;-65
2022/08/02 10:23:48;;;;;;;1.60;0.63;;;28.00;93.70;;;27.08;100.00;97796.41;4955867;28;20062;-63
2022/08/02 10:26:19;;;;;;;1.52;0.68;;;28.00;93.20;;;26.66;100.00;97801.81;4959206;28;20071;-65
2022/08/02 10:28:48;;;;;;;;;;;27.80;93.00;;;26.82;100.00;97793.88;4944977;28;20500;-64
2022/08/02 10:31:25;;;;;;;2.30;0.82;;;27.80;93.20;;;26.91;100.00;97794.72;4942212;28;19926;-65
2022/08/02 10:33:54;;;;;;;2.33;0.60;;;27.80;93.40;;;27.24;100.00;97792.97;4940252;28;20073;-64
2022/08/02 10:36:25;;;;;;;2.75;0.60;;;27.90;93.60;;;27.46;100.00;97783.50;4956698;28;20043;-64
2022/08/02 10:38:54;;;;;;;0.93;0.60;;;28.00;93.40;;;27.25;100.00;97777.81;4941655;28;20043;-64
2022/08/02 10:41:50;;;;;;;2.35;0.70;;;28.00;93.40;;;27.69;100.00;97772.13;4955471;28;20408;-64
2022/08/02 10:44:32;;;;;;;1.25;0.57;;;28.10;93.80;;;28.65;100.00;97783.72;4945374;28;20052;-64
2022/08/02 10:47:14;;;;;;;3.13;0.68;;;28.40;92.70;;;29.39;100.00;97776.88;4942089;28;20493;-64
2022/08/02 10:49:59;;;;;;;0.90;0.50;;;28.70;92.60;;;30.23;100.00;97763.34;4937850;28;20500;-64
2022/08/02 10:52:27;;;;;;;1.60;0.60;;;29.10;92.20;;;29.31;100.00;97774.28;4941415;28;20115;-64
2022/08/02 10:55:09;;;;;;;0.88;0.55;;;29.70;91.60;;;30.40;100.00;97761.34;4955448;28;20047;-65
2022/08/02 10:57:40;;;;;;;1.30;0.60;;;30.10;90.10;;;30.77;100.00;97750.66;4941435;28;20058;-65
2022/08/02 11:00:21;;;;;;;2.03;0.40;;;30.40;89.50;;;31.10;100.00;97752.88;4953609;28;20051;-64
2022/08/02 11:02:48;;;;;;;2.03;0.50;;;31.10;88.20;;;31.31;100.00;97758.19;4940911;28;20055;-64
2022/08/02 11:05:33;;;;;;;2.13;0.40;;;31.50;87.10;;;31.39;100.00;97751.91;4936579;28;20062;-65
2022/08/02 11:08:21;;;;;;;2.25;0.50;;;31.70;88.00;;;32.47;96.28;97745.16;4939373;28;20448;-65
2022/08/02 11:10:48;;;;;;;1.38;0.50;;;31.90;86.70;;;33.52;98.73;97748.28;4946510;28;20134;-65
2022/08/02 11:13:18;;;;;;;1.15;0.50;;;32.50;87.60;;;32.94;94.60;97744.50;4957881;28;20154;-65